Flight Track Log - Related Links

Times and Time Zones

All times are in EDT time to prevent confusion due to time zone crossing. See the KAP5 flight status page for this flight to view local times or setup timezone preferences in your user account.

Time Position Orientation Groundspeed Altitude Reporting Facility
EDT Latitude Longitude Course Direction KTS MPH feet Rate Location/Type
Sun 01:24:30 PM 44.6286 -75.3631 71° East 160 184 3,100  Level Boston Center
Sun 01:25:30 PM 44.6019 -75.3414 150° Southeast 140 161 4,000 850 Climbing Boston Center
Sun 01:26:30 PM 44.5714 -75.3078 142° Southeast 134 154 4,800 650 Climbing Boston Center
Sun 01:27:30 PM 44.5428 -75.2858 151° Southeast 128 147 5,300 550 Climbing Boston Center
Sun 01:28:30 PM 44.5142 -75.2642 152° Southeast 123 142 5,900 550 Climbing Boston Center
Sun 01:29:00 PM 44.7859 -75.0898 71° East  Level FlightAware Approximate
Sun 01:29:30 PM 44.4878 -75.2425 150° Southeast 118 136 6,400  Level Boston Center
Sun 01:30:30 PM 44.4592 -75.2208 152° Southeast 118 136 7,000 600 Climbing Boston Center
Sun 01:31:30 PM 44.4306 -75.1903 143° Southeast 118 136 7,600 500 Climbing Boston Center
Sun 01:32:42 PM 44.4019 -75.1717 155° Southeast 118 136 8,100 500 Climbing Boston Center
Sun 01:33:42 PM 44.3672 -75.1408 148° Southeast 118 136 8,700 500 Climbing Boston Center
Sun 01:34:42 PM 44.3386 -75.1164 149° Southeast 118 136 9,100 300 Climbing Boston Center
Sun 01:35:42 PM 44.3039 -75.0886 150° Southeast 129 148 9,300 450 Climbing Boston Center
Sun 01:36:42 PM 44.2692 -75.0553 145° Southeast 136 157 10,000 550 Climbing Boston Center
Sun 01:37:42 PM 44.2364 -75.0306 152° Southeast 136 157 10,400 400 Climbing Boston Center
Sun 01:38:42 PM 44.2033 -75.0119 158° South 136 157 10,800 300 Climbing Boston Center
Sun 01:39:42 PM 44.1686 -74.9872 153° Southeast 136 157 11,000 100 Climbing Boston Center
Sun 01:40:42 PM 44.1275 -74.9622 156° South 148 170 11,000  Level Boston Center
Sun 01:41:42 PM 44.0844 -74.9200 145° Southeast 162 186 11,000  Level Boston Center
Sun 01:42:42 PM 44.0417 -74.8806 146° Southeast 183 211 11,000 -50 Level Boston Center
Sun 01:43:42 PM 43.9986 -74.8414 147° Southeast 183 211 10,900 -50 Descending Boston Center
Sun 01:44:42 PM 43.9706 -74.7856 125° Southeast 183 211 10,900 50 Level Boston Center
Sun 01:45:42 PM 43.9383 -74.7322 130° Southeast 183 211 11,000 50 Climbing Boston Center
Sun 01:46:42 PM 43.8972 -74.7019 152° Southeast 178 205 11,000  Level Boston Center
Sun 01:47:42 PM 43.8497 -74.6858 166° South 172 198 11,000  Level Boston Center
Sun 01:48:42 PM 43.8081 -74.6783 173° South 166 191 11,000  Level Boston Center
Sun 01:49:42 PM 43.7672 -74.6453 150° Southeast 161 185 11,000 50 Level Boston Center
Sun 01:50:42 PM 43.7325 -74.5981 135° Southeast 166 191 11,100 -100 Climbing Boston Center
Sun 01:51:42 PM 43.7064 -74.5511 128° Southeast 166 191 10,800 -100 Descending Boston Center
Sun 01:52:42 PM 43.6992 -74.4819 98° East 159 183 10,900 50 Climbing Boston Center
Sun 01:53:42 PM 43.6603 -74.4433 144° Southeast 159 183 10,900  Level Boston Center
Sun 01:54:42 PM 43.6192 -74.4219 159° South 159 183 10,900 50 Level Boston Center
Sun 01:55:42 PM 43.5778 -74.3947 155° Southeast 164 189 11,000 50 Climbing Boston Center
Sun 01:56:42 PM 43.5325 -74.3703 159° South 169 194 11,000  Level Boston Center
Sun 01:57:42 PM 43.4911 -74.3433 155° Southeast 169 194 11,000  Level Boston Center
Sun 01:58:42 PM 43.4478 -74.3189 158° South 169 194 11,000 -56 Level Boston Center
Sun 01:59:29 PM 43.4169 -74.3008 157° South 165 190 10,900 -50 Descending Boston Center
Sun 02:00:42 PM 43.3631 -74.2736 160° South 163 188 10,900 45 Level Boston Center
Sun 02:01:42 PM 43.3197 -74.2522 160° South 169 194 11,000 50 Climbing Boston Center
Sun 02:02:42 PM 43.2783 -74.2311 160° South 169 194 11,000 -98 Level Boston Center
Sun 02:03:45 PM 43.2331 -74.1983 152° Southeast 174 200 10,800 -369 Descending Boston Center
Sun 02:04:52 PM 43.1856 -74.1572 148° Southeast 184 212 10,200 -595 Descending Boston Center
Sun 02:05:46 PM 43.1511 -74.1078 134° Southeast 189 217 9,600 -818 Descending Boston Center
Sun 02:06:42 PM 43.1161 -74.0669 140° Southeast 190 219 8,700 -1,034 Descending Boston Center
Sun 02:07:42 PM 43.0775 -74.0006 129° Southeast 195 224 7,600 -1,050 Descending Boston Center
Sun 02:08:42 PM 43.0406 -73.9600 141° Southeast 195 224 6,600 -1,031 Descending Boston Center
Sun 02:09:50 PM 42.9933 -73.9075 141° Southeast 183 211 5,400 -1,023 Descending Boston Center
Sun 02:10:51 PM 42.9586 -73.8558 133° Southeast 186 214 4,400 -911 Descending Boston Center
Sun 02:11:42 PM 42.9256 -73.8181 140° Southeast 188 216 3,700 -942 Descending Boston Center
Sun 02:12:52 PM 42.8589 -73.8108 175° South 186 214 2,500 -962 Descending Boston Center
Sun 02:13:53 PM 42.8111 -73.8128 182° South 173 199 1,600 -984 Descending Boston Center
Sun 02:14:54 PM 42.7672 -73.8061 174° South 146 168 500 -1,082 Descending Boston Center
Sun 02:16:00 PM 42.7491 -73.8020 160° South  Level Estimated
Sun 02:23:00 PM 42.7491 -73.8020 160° South  Level Estimated
Sun 02:24:00 PM 42.7491 -73.8020 160° South  Level Estimated

Login

Don't have an account? Register now (free) for customized features, flight alerts, and more!